Time;durP1;ratioP1;P1;durP2;ratioP2;P2;SDS_P1;SDS_P2;PMS_P1;PMS_P2;Temp;Humidity;BMP_temperature;BMP_pressure;BME280_temperature;BME280_humidity;BME280_pressure;Samples;Min_cycle;Max_cycle;Signal;HPM_P1;HPM_P2
2022/10/18 00:03:13;;;;;;;3.45;0.80;;;;;;;9.24;88.55;100911.72;10428933;28;20049;-74
2022/10/18 00:08:16;;;;;;;3.15;0.52;;;;;;;9.20;88.14;100907.84;10450389;28;20040;-74
2022/10/18 00:13:19;;;;;;;1.20;0.50;;;;;;;9.19;88.59;100901.53;10459798;28;20049;-74
2022/10/18 00:18:22;;;;;;;1.17;0.55;;;;;;;9.38;88.44;100901.94;10445180;28;20045;-74
2022/10/18 00:23:24;;;;;;;1.38;0.40;;;;;;;9.47;87.19;100888.53;10456664;28;20037;-74
2022/10/18 00:28:27;;;;;;;1.52;0.60;;;;;;;9.52;86.59;100877.59;10446431;28;20049;-74
2022/10/18 00:33:29;;;;;;;2.03;0.57;;;;;;;9.42;86.51;100885.78;10465216;28;20053;-74
2022/10/18 00:38:31;;;;;;;1.35;0.60;;;;;;;9.39;86.80;100872.63;10475780;28;20037;-74
2022/10/18 00:43:57;;;;;;;2.50;0.57;;;;;;;9.28;87.32;100874.47;10479456;28;20041;-74
2022/10/18 00:49:04;;;;;;;2.22;0.50;;;;;;;9.16;86.76;100858.25;10444893;28;20045;-74
2022/10/18 00:54:07;;;;;;;2.67;0.60;;;;;;;9.39;86.95;100846.06;10449801;28;20037;-74
2022/10/18 00:59:12;;;;;;;1.95;0.40;;;;;;;9.38;87.66;100840.84;10468698;28;20111;-74
2022/10/18 01:04:15;;;;;;;2.17;0.73;;;;;;;9.46;87.28;100843.88;10448369;28;20046;-74
2022/10/18 01:10:02;;;;;;;1.02;0.50;;;;;;;9.49;86.67;100820.59;10427774;28;20044;-74
2022/10/18 01:15:25;;;;;;;0.95;0.50;;;;;;;9.53;87.05;100818.97;10409575;28;20046;-74
2022/10/18 01:20:36;;;;;;;3.47;0.57;;;;;;;9.45;86.07;100814.03;10430932;28;20052;-74
2022/10/18 01:25:59;;;;;;;3.22;0.40;;;;;;;9.50;86.16;100805.81;10459185;28;20657;-74
2022/10/18 01:31:15;;;;;;;1.48;0.70;;;;;;;9.50;86.05;100795.69;10461865;28;20040;-74
2022/10/18 01:36:34;;;;;;;0.82;0.43;;;;;;;9.39;85.59;100793.19;10472634;28;20565;-74
2022/10/18 01:41:38;;;;;;;2.15;0.50;;;;;;;9.26;86.08;100778.09;10465629;28;20515;-74
2022/10/18 01:46:41;;;;;;;1.17;0.50;;;;;;;9.39;86.10;100776.78;10448338;28;20090;-73
2022/10/18 01:51:43;;;;;;;0.82;0.50;;;;;;;9.45;86.04;100767.47;10452364;28;20060;-73
2022/10/18 01:57:02;;;;;;;2.63;0.55;;;;;;;9.39;86.24;100760.34;10454984;28;20052;-73
2022/10/18 02:02:11;;;;;;;1.10;0.50;;;;;;;9.58;85.75;100745.84;10446807;28;20040;-73
2022/10/18 02:07:22;;;;;;;1.58;0.60;;;;;;;9.61;86.00;100736.25;10448111;28;20041;-73
2022/10/18 02:12:25;;;;;;;1.52;0.73;;;;;;;9.62;85.87;100736.00;10442230;28;20061;-73
2022/10/18 02:17:29;;;;;;;1.80;0.70;;;;;;;9.55;85.94;100729.16;10462393;28;20041;-73
2022/10/18 02:22:31;;;;;;;2.53;0.70;;;;;;;9.40;86.85;100720.91;10452735;28;20516;-73
2022/10/18 02:27:34;;;;;;;1.60;0.70;;;;;;;9.50;86.53;100710.75;10443875;28;20048;-73
2022/10/18 02:32:44;;;;;;;2.13;0.68;;;;;;;9.52;86.76;100707.75;10442502;28;20044;-73
2022/10/18 02:37:47;;;;;;;1.70;0.60;;;;;;;9.49;87.32;100695.44;10442408;28;20358;-73
2022/10/18 02:42:53;;;;;;;1.95;0.47;;;;;;;9.41;86.91;100686.94;10441230;28;20041;-73
2022/10/18 02:47:56;;;;;;;4.38;0.80;;;;;;;9.20;86.72;100678.69;10442872;28;20056;-73
2022/10/18 02:52:58;;;;;;;1.77;0.47;;;;;;;9.25;88.08;100664.19;10442413;28;20041;-73
2022/10/18 02:58:00;;;;;;;2.35;0.77;;;;;;;9.14;87.56;100660.59;10450400;28;20049;-73
2022/10/18 03:03:02;;;;;;;1.95;0.70;;;;;;;9.05;88.49;100648.56;10442521;28;20519;-74
2022/10/18 03:08:05;;;;;;;1.40;0.63;;;;;;;8.98;89.35;100635.09;10441533;28;20049;-74
2022/10/18 03:13:07;;;;;;;2.13;0.80;;;;;;;8.87;89.15;100638.13;10442742;28;20054;-75
2022/10/18 03:18:10;;;;;;;1.05;0.68;;;;;;;8.95;89.30;100621.16;10475118;28;20515;-74
2022/10/18 03:23:12;;;;;;;1.20;0.80;;;;;;;9.02;89.48;100611.59;10441137;28;20041;-74
2022/10/18 03:28:14;;;;;;;1.98;0.80;;;;;;;9.19;89.16;100600.38;10441167;28;20573;-74
2022/10/18 03:33:17;;;;;;;1.88;0.70;;;;;;;9.07;88.08;100595.19;10450594;28;20041;-74
2022/10/18 03:38:19;;;;;;;5.28;1.00;;;;;;;8.96;88.45;100577.09;10456463;28;20049;-74
2022/10/18 03:43:21;;;;;;;3.35;0.90;;;;;;;8.82;88.55;100572.41;10449893;28;20056;-75
2022/10/18 03:48:24;;;;;;;3.30;1.08;;;;;;;8.74;89.91;100558.19;10450920;28;20045;-73
2022/10/18 03:53:26;;;;;;;5.97;1.33;;;;;;;8.90;89.90;100552.75;10449466;28;20045;-74
2022/10/18 03:58:28;;;;;;;2.78;1.20;;;;;;;8.94;90.51;100553.81;10449074;28;20045;-73
2022/10/18 04:03:31;;;;;;;2.78;1.27;;;;;;;8.87;89.95;100543.16;10465898;28;20561;-74
2022/10/18 04:08:33;;;;;;;4.95;1.42;;;;;;;8.76;90.39;100542.31;10467099;28;20050;-73
2022/10/18 04:13:35;;;;;;;4.78;1.50;;;;;;;8.88;91.70;100542.06;10456643;28;20056;-73
2022/10/18 04:18:37;;;;;;;1.30;1.10;;;;;;;8.67;91.39;100522.03;10459692;28;20057;-73
2022/10/18 04:23:40;;;;;;;3.38;1.33;;;;;;;8.62;92.98;100523.97;10447146;28;20041;-73
2022/10/18 04:28:42;;;;;;;1.60;1.25;;;;;;;8.70;93.06;100526.19;10421848;28;20455;-73
2022/10/18 04:33:45;;;;;;;5.68;1.83;;;;;;;8.80;93.23;100520.69;10440137;28;20048;-74
2022/10/18 04:38:47;;;;;;;5.90;1.55;;;;;;;8.63;92.14;100510.00;10442571;28;20044;-74
2022/10/18 04:43:49;;;;;;;1.92;1.27;;;;;;;8.55;92.73;100510.56;10442880;28;20045;-72
2022/10/18 04:48:51;;;;;;;1.95;1.35;;;;;;;8.66;93.12;100500.44;10444325;28;20060;-74
2022/10/18 04:53:54;;;;;;;3.92;1.33;;;;;;;9.25;93.25;100499.91;10453705;28;20037;-74
2022/10/18 04:58:57;;;;;;;5.65;2.00;;;;;;;9.52;91.13;100491.34;10476483;28;20424;-74
2022/10/18 05:03:59;;;;;;;3.03;1.35;;;;;;;9.85;88.85;100490.69;10453370;28;20503;-74
2022/10/18 05:09:01;;;;;;;4.53;1.42;;;;;;;10.07;87.06;100481.31;10456328;28;20060;-74
2022/10/18 05:14:04;;;;;;;2.90;1.25;;;;;;;9.91;86.17;100475.06;10473762;28;20033;-74
2022/10/18 05:19:07;;;;;;;1.45;0.98;;;;;;;10.02;86.56;100471.16;10444601;28;20044;-74
2022/10/18 05:24:10;;;;;;;3.05;1.10;;;;;;;10.33;84.64;100460.88;10438518;28;20045;-73
2022/10/18 05:29:13;;;;;;;3.85;1.23;;;;;;;10.17;84.50;100468.34;10479064;28;20049;-74
2022/10/18 05:34:16;;;;;;;5.78;1.13;;;;;;;10.10;84.56;100453.31;10451791;28;20065;-74
2022/10/18 05:39:18;;;;;;;4.43;1.17;;;;;;;9.62;85.00;100447.50;10464522;28;20052;-74
2022/10/18 05:44:21;;;;;;;2.50;1.10;;;;;;;9.11;86.93;100446.81;10460035;28;20036;-74
2022/10/18 05:49:23;;;;;;;3.33;1.17;;;;;;;8.77;88.48;100442.72;10455736;28;20055;-74
2022/10/18 05:54:25;;;;;;;3.63;0.80;;;;;;;8.66;90.11;100448.47;10462835;28;20052;-72
2022/10/18 05:59:27;;;;;;;4.38;1.33;;;;;;;8.54;91.00;100454.22;10448214;28;20061;-74
2022/10/18 06:04:29;;;;;;;2.67;1.00;;;;;;;8.43;91.38;100442.44;10440098;28;20420;-75
2022/10/18 06:09:32;;;;;;;3.08;1.10;;;;;;;8.38;91.91;100431.50;10441390;28;20045;-75
2022/10/18 06:14:35;;;;;;;4.15;1.23;;;;;;;8.38;92.02;100422.47;10443296;28;20052;-75
2022/10/18 06:19:38;;;;;;;2.17;1.00;;;;;;;8.43;92.82;100425.22;10442522;28;20041;-77
2022/10/18 06:24:40;;;;;;;2.13;0.80;;;;;;;8.35;92.88;100423.84;10442694;28;20041;-77
2022/10/18 06:29:42;;;;;;;2.15;1.02;;;;;;;8.34;92.95;100426.84;10434556;28;20049;-75
2022/10/18 06:34:45;;;;;;;1.98;0.93;;;;;;;8.32;93.01;100437.19;10442728;28;20068;-76
2022/10/18 06:39:47;;;;;;;1.73;0.90;;;;;;;8.28;93.84;100430.63;10443182;28;20045;-74
2022/10/18 06:44:49;;;;;;;6.22;1.23;;;;;;;8.24;93.70;100440.47;10442506;28;20048;-74
2022/10/18 06:49:52;;;;;;;5.05;1.20;;;;;;;8.23;95.08;100442.38;10443010;28;20037;-75
2022/10/18 06:54:54;;;;;;;2.95;1.30;;;;;;;8.28;95.14;100439.66;10443124;28;20522;-74
2022/10/18 06:59:56;;;;;;;2.92;0.85;;;;;;;8.18;95.53;100442.38;10444063;28;20046;-74
2022/10/18 07:05:28;;;;;;;2.72;1.35;;;;;;;8.21;95.27;100441.84;10446438;28;20045;-74
2022/10/18 07:10:30;;;;;;;4.25;1.30;;;;;;;8.03;95.70;100447.81;10450101;28;20060;-74
2022/10/18 07:15:32;;;;;;;3.97;1.00;;;;;;;8.05;96.01;100451.91;10450595;28;20064;-74
2022/10/18 07:20:35;;;;;;;4.50;1.40;;;;;;;8.04;96.56;100447.53;10450952;28;20044;-74
2022/10/18 07:25:37;;;;;;;3.13;1.02;;;;;;;8.12;96.79;100438.78;10450554;28;20057;-74
2022/10/18 07:30:39;;;;;;;2.33;1.30;;;;;;;7.97;97.15;100452.41;10428271;28;20037;-74
2022/10/18 07:35:41;;;;;;;4.53;1.40;;;;;;;7.84;97.35;100452.94;10410073;28;20141;-74
2022/10/18 07:40:43;;;;;;;1.60;1.10;;;;;;;7.71;98.06;100458.88;10429225;28;20049;-74
2022/10/18 07:45:57;;;;;;;1.88;0.90;;;;;;;7.83;97.32;100459.50;10449154;28;20041;-74
2022/10/18 07:51:00;;;;;;;2.92;1.45;;;;;;;7.74;98.30;100470.09;10450176;28;20524;-74
2022/10/18 07:56:05;;;;;;;2.92;0.90;;;;;;;7.68;98.84;100479.34;10429314;28;20025;-73
2022/10/18 08:01:07;;;;;;;4.05;1.05;;;;;;;7.64;98.33;100474.69;10448277;28;20140;-74
2022/10/18 08:06:12;;;;;;;1.90;1.08;;;;;;;7.71;99.09;100480.72;10449855;28;20045;-74
2022/10/18 08:11:19;;;;;;;5.13;2.90;;;;;;;7.60;99.52;100463.47;10449088;28;20069;-74
2022/10/18 08:16:24;;;;;;;5.40;1.92;;;;;;;7.64;99.43;100458.31;10446417;28;20045;-74
2022/10/18 08:21:27;;;;;;;2.70;1.27;;;;;;;7.54;98.95;100453.63;10448105;28;20044;-74
2022/10/18 08:26:29;;;;;;;0.85;0.68;;;;;;;7.68;99.65;100443.03;10441490;28;20041;-74
2022/10/18 08:31:31;;;;;;;1.00;0.50;;;;;;;7.59;99.26;100444.63;10448031;28;20049;-74
2022/10/18 08:36:33;;;;;;;4.20;0.70;;;;;;;7.69;97.98;100425.56;10448173;28;20041;-74
2022/10/18 08:41:35;;;;;;;1.42;0.68;;;;;;;7.88;97.78;100429.44;10447934;28;20038;-75
2022/10/18 08:46:43;;;;;;;1.00;0.90;;;;;;;7.90;97.69;100430.00;10448049;28;20049;-74
2022/10/18 08:51:47;;;;;;;1.75;0.90;;;;;;;7.94;96.94;100419.34;10447676;28;20042;-74
2022/10/18 08:56:57;;;;;;;4.68;1.10;;;;;;;7.96;96.79;100431.63;10446572;28;20052;-74
2022/10/18 09:02:30;;;;;;;2.30;0.85;;;;;;;7.97;95.26;100425.09;10419435;28;20045;-74
2022/10/18 09:07:51;;;;;;;1.00;0.88;;;;;;;7.92;95.92;100419.63;10404716;28;20049;-74
2022/10/18 09:13:20;;;;;;;2.10;0.90;;;;;;;7.94;95.58;100422.91;10434501;28;20404;-74
2022/10/18 09:18:31;;;;;;;0.90;0.70;;;;;;;8.06;95.12;100428.94;10404164;28;20049;-74
2022/10/18 09:23:47;;;;;;;2.80;1.25;;;;;;;8.08;94.10;100426.75;10428546;28;20033;-74
2022/10/18 09:28:52;;;;;;;3.30;0.80;;;;;;;8.14;94.00;100427.59;10448047;28;20048;-75
2022/10/18 09:34:05;;;;;;;0.95;0.73;;;;;;;8.23;94.08;100427.91;10446276;28;20064;-74
2022/10/18 09:39:14;;;;;;;0.63;0.60;;;;;;;8.29;94.56;100424.06;10442205;28;20041;-75
2022/10/18 09:44:23;;;;;;;1.80;0.52;;;;;;;8.27;93.92;100418.88;10443895;28;20034;-77
2022/10/18 09:49:29;;;;;;;1.15;0.70;;;;;;;8.31;94.67;100419.97;10443622;28;20146;-77
2022/10/18 09:54:41;;;;;;;2.88;0.77;;;;;;;8.44;94.34;100418.66;10413157;28;20547;-76
2022/10/18 09:59:48;;;;;;;1.98;0.75;;;;;;;8.49;95.14;100415.91;10421459;28;20045;-77
2022/10/18 10:04:52;;;;;;;1.58;0.70;;;;;;;8.41;94.71;100408.25;10424670;28;20048;-75
2022/10/18 10:09:58;;;;;;;0.50;0.50;;;;;;;8.41;94.68;100408.25;10445012;28;20057;-77
2022/10/18 10:15:08;;;;;;;2.67;0.70;;;;;;;8.41;94.26;100408.25;10442959;28;20053;-77
2022/10/18 10:20:19;;;;;;;0.50;0.50;;;;;;;8.37;93.94;100407.16;10444493;28;20522;-76
2022/10/18 10:25:30;;;;;;;1.55;0.70;;;;;;;8.34;93.51;100408.53;10439453;28;20049;-77
2022/10/18 10:30:34;;;;;;;0.70;0.40;;;;;;;8.29;93.36;100407.66;10409281;28;20744;-77
2022/10/18 10:35:38;;;;;;;2.10;0.90;;;;;;;8.36;93.53;100411.00;10440152;28;20523;-78
2022/10/18 10:40:51;;;;;;;2.70;0.60;;;;;;;8.43;94.10;100401.44;10429818;28;20045;-77
2022/10/18 10:46:00;;;;;;;1.05;0.82;;;;;;;8.37;94.38;100404.44;10412006;28;20042;-77
2022/10/18 10:51:06;;;;;;;1.67;0.70;;;;;;;8.33;94.77;100392.34;10439054;28;20041;-78
2022/10/18 10:56:21;;;;;;;1.30;0.73;;;;;;;8.42;94.56;100402.53;10446361;28;20041;-77
2022/10/18 11:01:27;;;;;;;1.83;0.98;;;;;;;8.36;95.23;100394.59;10425705;28;20049;-77
2022/10/18 11:06:48;;;;;;;0.40;0.40;;;;;;;8.37;94.43;100394.31;10441974;28;20546;-81
2022/10/18 11:12:32;;;;;;;2.45;0.52;;;;;;;8.43;94.72;100390.50;10436491;28;20053;-80
2022/10/18 11:17:59;;;;;;;1.35;0.50;;;;;;;8.30;94.64;100392.91;10428397;28;20495;-78
2022/10/18 11:23:05;;;;;;;0.87;0.70;;;;;;;8.25;94.53;100391.00;10450474;28;20045;-80
2022/10/18 11:28:32;;;;;;;2.42;0.80;;;;;;;8.26;94.69;100398.09;10440798;28;20053;-77
2022/10/18 11:33:59;;;;;;;2.10;0.80;;;;;;;8.28;95.11;100400.56;10445453;28;20065;-82
2022/10/18 11:39:09;;;;;;;1.00;0.70;;;;;;;8.18;94.33;100397.81;10429084;28;20060;-81
2022/10/18 11:44:39;;;;;;;2.53;0.90;;;;;;;8.18;95.04;100398.66;10445793;28;20048;-83
2022/10/18 11:49:49;;;;;;;2.38;0.82;;;;;;;8.28;94.55;100403.28;10446519;28;20416;-91
2022/10/18 11:55:04;;;;;;;1.55;0.60;;;;;;;8.27;95.05;100401.66;10437947;28;20050;-77
2022/10/18 12:00:17;;;;;;;2.22;0.50;;;;;;;8.38;95.48;100401.44;10441980;28;20068;-81
2022/10/18 12:05:20;;;;;;;2.58;0.60;;;;;;;8.35;95.00;100392.97;10404655;28;20052;-79
2022/10/18 12:10:23;;;;;;;1.63;0.60;;;;;;;8.35;94.71;100403.91;10445419;28;20034;-77
2022/10/18 12:15:28;;;;;;;2.88;0.60;;;;;;;8.35;95.19;100399.25;10447058;28;20053;-82
2022/10/18 12:20:40;;;;;;;0.90;0.70;;;;;;;8.34;95.02;100402.25;10438955;28;20044;-82
2022/10/18 12:25:47;;;;;;;1.83;0.82;;;;;;;8.33;94.83;100401.41;10435780;28;20050;-87
2022/10/18 12:31:03;;;;;;;1.07;0.70;;;;;;;8.36;94.42;100405.53;10446106;28;20034;-83
2022/10/18 12:36:20;;;;;;;1.85;0.80;;;;;;;8.34;94.04;100402.25;10438930;28;20408;-81
2022/10/18 12:41:27;;;;;;;0.93;0.60;;;;;;;8.33;93.60;100401.41;10440129;28;20065;-81
2022/10/18 12:46:50;;;;;;;0.43;0.43;;;;;;;8.42;93.23;100394.31;10434346;28;20156;-81
2022/10/18 12:51:55;;;;;;;1.98;0.52;;;;;;;8.60;92.97;100397.59;10434991;28;20053;-80
2022/10/18 12:56:59;;;;;;;1.40;0.60;;;;;;;8.56;92.53;100396.50;10440696;28;20144;-85
2022/10/18 13:02:05;;;;;;;1.27;0.52;;;;;;;8.70;91.45;100392.13;10435683;28;20045;-81
2022/10/18 13:07:07;;;;;;;0.90;0.55;;;;;;;8.53;91.41;100392.41;10443950;28;20148;-86
2022/10/18 13:12:11;;;;;;;3.08;0.50;;;;;;;8.41;90.90;100402.78;10438815;28;20542;-82
2022/10/18 13:17:30;;;;;;;0.73;0.40;;;;;;;8.34;91.60;100391.31;10436057;28;20045;-89
2022/10/18 13:22:38;;;;;;;1.08;0.60;;;;;;;8.24;92.80;100378.41;10423084;28;20056;-80
2022/10/18 13:28:14;;;;;;;1.23;0.60;;;;;;;8.27;93.12;100382.50;10438808;28;20064;-78
2022/10/18 13:33:22;;;;;;;1.40;0.70;;;;;;;8.19;94.30;100369.41;10417517;28;20427;-79
2022/10/18 13:38:46;;;;;;;1.88;0.88;;;;;;;8.14;94.69;100362.00;10427229;28;20041;-81
2022/10/18 13:43:51;;;;;;;3.00;0.82;;;;;;;8.10;95.48;100369.91;10440318;28;20048;-84
2022/10/18 13:48:59;;;;;;;1.65;0.50;;;;;;;8.04;95.46;100367.47;10438826;28;20049;-85
2022/10/18 13:54:37;;;;;;;0.50;0.45;;;;;;;7.96;95.04;100371.53;10429839;28;20030;-82
2022/10/18 13:59:50;;;;;;;0.95;0.60;;;;;;;7.93;96.19;100385.75;10435927;28;20033;-84
2022/10/18 14:05:17;;;;;;;1.08;0.80;;;;;;;7.92;96.74;100380.56;10442675;28;20425;-81
2022/10/18 14:10:49;;;;;;;0.50;0.40;;;;;;;7.67;96.46;100376.66;10436649;28;20052;-85
2022/10/18 14:15:55;;;;;;;2.60;0.55;;;;;;;7.51;95.96;100378.53;10420951;28;20500;-77
2022/10/18 14:21:01;;;;;;;0.55;0.47;;;;;;;7.48;96.54;100375.50;10418844;28;20041;-77
2022/10/18 14:26:14;;;;;;;2.60;0.73;;;;;;;7.49;96.45;100379.88;10441681;28;20049;-79
2022/10/18 14:31:18;;;;;;;1.65;0.60;;;;;;;7.54;97.65;100375.25;10441256;28;20044;-79
2022/10/18 14:36:20;;;;;;;3.22;1.02;;;;;;;7.55;97.67;100385.09;10443199;28;20045;-79
2022/10/18 14:41:51;;;;;;;0.80;0.70;;;;;;;7.48;98.36;100400.09;10442281;28;20049;-79
2022/10/18 14:47:21;;;;;;;1.20;0.88;;;;;;;7.38;97.86;100400.03;10439993;28;20049;-79
2022/10/18 14:52:29;;;;;;;1.15;0.75;;;;;;;7.35;98.07;100400.56;10441865;28;20435;-79
2022/10/18 14:57:35;;;;;;;0.90;0.90;;;;;;;7.32;98.21;100396.47;10408359;28;20049;-80
2022/10/18 15:02:38;;;;;;;1.00;0.85;;;;;;;7.33;98.62;100409.03;10441213;28;20060;-82
2022/10/18 15:07:41;;;;;;;1.35;0.63;;;;;;;7.35;98.89;100406.03;10481191;28;20059;-81
2022/10/18 15:12:44;;;;;;;0.82;0.70;;;;;;;7.39;98.75;100399.75;10453186;28;20048;-81
2022/10/18 15:17:47;;;;;;;1.95;0.80;;;;;;;7.41;99.36;100403.03;10442151;28;20148;-81
2022/10/18 15:22:50;;;;;;;2.00;0.80;;;;;;;7.54;98.83;100404.47;10439134;28;20050;-77
2022/10/18 15:27:55;;;;;;;1.98;0.80;;;;;;;7.47;99.44;100410.19;10439010;28;20468;-81
2022/10/18 15:32:59;;;;;;;4.95;1.17;;;;;;;7.47;100.00;100412.91;10446508;28;20037;-82
2022/10/18 15:38:21;;;;;;;1.08;1.05;;;;;;;7.41;99.65;100403.03;10447283;28;20049;-80
2022/10/18 15:43:29;;;;;;;1.60;0.90;;;;;;;7.43;99.84;100402.78;10431523;28;20034;-86
2022/10/18 15:48:38;;;;;;;1.90;1.10;;;;;;;7.47;99.25;100404.72;10442168;28;20053;-82
2022/10/18 15:53:49;;;;;;;2.22;0.93;;;;;;;7.48;99.63;100394.63;10443173;28;20041;-79
2022/10/18 15:58:55;;;;;;;1.27;0.93;;;;;;;7.66;99.28;100401.53;10447881;28;20041;-81
2022/10/18 16:03:58;;;;;;;2.47;1.00;;;;;;;7.78;99.43;100393.88;10421291;28;20037;-79
2022/10/18 16:09:01;;;;;;;1.98;0.90;;;;;;;7.74;100.00;100406.44;10442264;28;20069;-77
2022/10/18 16:14:03;;;;;;;1.02;0.82;;;;;;;7.61;99.58;100405.03;10425773;28;20042;-81
2022/10/18 16:19:08;;;;;;;0.68;0.60;;;;;;;7.52;99.20;100406.66;10442497;28;20111;-82
2022/10/18 16:24:11;;;;;;;0.52;0.40;;;;;;;7.56;98.62;100403.09;10431614;28;20070;-79
2022/10/18 16:29:20;;;;;;;0.88;0.60;;;;;;;7.40;98.12;100395.94;10438057;28;20081;-80
2022/10/18 16:34:25;;;;;;;0.88;0.75;;;;;;;7.25;97.34;100390.41;10426642;28;20040;-77
2022/10/18 16:39:30;;;;;;;0.75;0.50;;;;;;;7.20;96.49;100393.13;10445854;28;20053;-77
2022/10/18 16:44:33;;;;;;;0.82;0.63;;;;;;;7.21;95.09;100389.28;10433690;28;20048;-79
2022/10/18 16:49:35;;;;;;;1.17;0.50;;;;;;;7.04;94.05;100389.47;10434599;28;20633;-79
2022/10/18 16:54:37;;;;;;;1.48;0.70;;;;;;;6.99;94.05;100392.19;10444829;28;20053;-80
2022/10/18 16:59:39;;;;;;;2.50;0.90;;;;;;;6.99;94.02;100389.44;10442006;28;20049;-79
2022/10/18 17:04:41;;;;;;;2.80;1.13;;;;;;;6.98;94.30;100387.81;10443683;28;20412;-79
2022/10/18 17:09:43;;;;;;;1.38;0.95;;;;;;;7.10;94.57;100384.84;10441880;28;20065;-82
2022/10/18 17:14:46;;;;;;;1.63;0.70;;;;;;;7.15;95.09;100376.72;10442697;28;20049;-79
2022/10/18 17:19:48;;;;;;;1.80;0.77;;;;;;;7.08;94.73;100374.22;10442992;28;20037;-79
2022/10/18 17:24:51;;;;;;;0.63;0.63;;;;;;;7.02;94.66;100374.47;10439075;28;20053;-79
2022/10/18 17:29:53;;;;;;;2.13;0.65;;;;;;;7.20;94.47;100376.75;10446601;28;20495;-85
2022/10/18 17:34:55;;;;;;;1.95;0.63;;;;;;;7.42;95.57;100369.19;10445488;28;20045;-89
2022/10/18 17:39:57;;;;;;;0.60;0.60;;;;;;;7.71;93.87;100377.75;10440453;28;20048;-82
2022/10/18 17:45:00;;;;;;;1.38;0.70;;;;;;;7.89;93.39;100378.34;10443567;28;20527;-77
2022/10/18 17:50:02;;;;;;;1.45;0.60;;;;;;;7.91;92.20;100366.06;10450506;28;20041;-83
2022/10/18 17:55:04;;;;;;;0.60;0.60;;;;;;;7.82;91.55;100362.25;10442784;28;20416;-91
2022/10/18 18:00:10;;;;;;;0.90;0.50;;;;;;;7.49;90.25;100361.59;10437852;28;20071;-82
2022/10/18 18:05:16;;;;;;;2.05;1.30;;;;;;;7.35;90.29;100354.97;10441709;28;20045;-80
2022/10/18 18:10:18;;;;;;;0.85;0.52;;;;;;;7.29;90.75;100357.94;10440708;28;20041;-81
2022/10/18 18:15:20;;;;;;;0.60;0.40;;;;;;;7.34;91.08;100355.25;10436768;28;20064;-85
2022/10/18 18:20:23;;;;;;;1.48;0.50;;;;;;;7.26;90.91;100351.09;10437456;28;20513;-81
2022/10/18 18:25:26;;;;;;;1.13;0.75;;;;;;;7.33;90.77;100348.16;10443275;28;20037;-81
2022/10/18 18:30:28;;;;;;;1.08;0.57;;;;;;;7.34;90.91;100334.22;10442164;28;20064;-88
2022/10/18 18:35:30;;;;;;;0.70;0.52;;;;;;;7.37;91.05;100335.59;10440761;28;20053;-85
2022/10/18 18:40:32;;;;;;;1.90;0.57;;;;;;;7.39;92.50;100347.88;10432939;28;20034;-83
2022/10/18 18:45:35;;;;;;;0.98;0.45;;;;;;;7.24;92.96;100335.00;10407464;28;20052;-83
2022/10/18 18:50:37;;;;;;;1.20;0.30;;;;;;;7.16;94.02;100327.34;10436779;28;20056;-84
2022/10/18 18:55:40;;;;;;;1.00;0.38;;;;;;;7.14;94.44;100325.97;10449266;28;20045;-83
2022/10/18 19:00:43;;;;;;;0.50;0.45;;;;;;;7.10;94.88;100322.09;10441344;28;20576;-87
2022/10/18 19:05:46;;;;;;;1.27;0.63;;;;;;;7.05;95.50;100330.28;10448130;28;20420;-84
2022/10/18 19:10:48;;;;;;;1.20;0.47;;;;;;;6.97;95.54;100320.69;10449462;28;20049;-83
2022/10/18 19:15:50;;;;;;;0.50;0.50;;;;;;;6.92;96.18;100317.94;10447480;28;20053;-90
2022/10/18 19:20:52;;;;;;;1.63;0.55;;;;;;;6.91;96.47;100314.38;10450473;28;20855;-89
2022/10/18 19:26:08;;;;;;;1.27;0.57;;;;;;;6.92;97.07;100304.28;10444667;28;20042;-86
2022/10/18 19:31:10;;;;;;;0.77;0.63;;;;;;;7.00;96.49;100302.97;10461104;28;20507;-83
2022/10/18 19:36:12;;;;;;;0.45;0.45;;;;;;;7.13;96.97;100308.78;10436824;28;20064;-82
2022/10/18 19:41:15;;;;;;;1.45;0.80;;;;;;;7.19;96.69;100304.97;10447158;28;20064;-88
2022/10/18 19:46:17;;;;;;;2.55;1.00;;;;;;;7.06;96.45;100293.72;10450543;28;20037;-87
2022/10/18 19:51:20;;;;;;;0.60;0.60;;;;;;;7.02;96.68;100287.16;10450696;28;20471;-87
2022/10/18 19:56:24;;;;;;;0.80;0.70;;;;;;;6.99;96.23;100274.06;10435043;28;20389;-78
2022/10/18 20:01:30;;;;;;;2.10;0.70;;;;;;;6.98;97.12;100280.59;10442187;28;20053;-78
2022/10/18 20:06:33;;;;;;;1.98;1.20;;;;;;;6.96;96.52;100297.25;10435971;28;20415;-77
2022/10/18 20:11:35;;;;;;;1.33;0.82;;;;;;;7.07;96.65;100290.72;10401697;28;20500;-76
2022/10/18 20:16:38;;;;;;;1.35;0.80;;;;;;;7.09;96.40;100298.63;10406522;28;20066;-76
2022/10/18 20:21:40;;;;;;;1.15;0.70;;;;;;;7.18;96.23;100291.59;10464544;28;20411;-74
2022/10/18 20:26:42;;;;;;;0.70;0.70;;;;;;;7.28;96.11;100290.78;10446397;28;20397;-80
2022/10/18 20:31:46;;;;;;;1.05;0.93;;;;;;;7.31;95.92;100291.09;10391595;28;20038;-78
2022/10/18 20:36:48;;;;;;;1.33;0.90;;;;;;;7.31;96.06;100288.38;10448940;28;20045;-81
2022/10/18 20:41:50;;;;;;;0.80;0.80;;;;;;;7.37;95.21;100279.09;10442431;28;20127;-80
2022/10/18 20:46:53;;;;;;;1.77;0.70;;;;;;;7.35;95.36;100275.00;10425461;28;20405;-78
2022/10/18 20:51:55;;;;;;;2.60;1.08;;;;;;;7.34;94.57;100267.91;10436392;28;20053;-83
2022/10/18 20:56:57;;;;;;;0.68;0.60;;;;;;;7.37;94.72;100259.19;10430839;28;20051;-85
2022/10/18 21:01:59;;;;;;;0.52;0.50;;;;;;;7.29;94.36;100260.53;10447945;28;20042;-80
2022/10/18 21:07:01;;;;;;;0.63;0.57;;;;;;;7.20;94.38;100251.22;10445751;28;20054;-84
2022/10/18 21:12:04;;;;;;;0.88;0.45;;;;;;;7.16;93.53;100240.03;10445688;28;20048;-88
2022/10/18 21:17:07;;;;;;;0.75;0.57;;;;;;;7.23;93.82;100231.56;10442818;28;20057;-89
2022/10/18 21:22:13;;;;;;;0.52;0.52;;;;;;;7.60;94.85;100236.00;10441857;28;20053;-82
2022/10/18 21:27:15;;;;;;;1.40;0.60;;;;;;;7.71;94.51;100234.94;10444208;28;20057;-85
2022/10/18 21:32:18;;;;;;;0.50;0.40;;;;;;;7.72;93.07;100242.03;10464600;28;20045;-90
2022/10/18 21:37:20;;;;;;;0.47;0.47;;;;;;;7.68;92.27;100236.31;10459131;28;20034;-88
2022/10/18 21:42:22;;;;;;;0.73;0.60;;;;;;;7.77;92.02;100231.91;10458221;28;20045;-92
2022/10/18 21:47:24;;;;;;;0.90;0.57;;;;;;;7.77;91.13;100223.72;10459775;28;20053;-86
2022/10/18 21:52:27;;;;;;;1.35;0.90;;;;;;;7.55;91.79;100215.81;10443898;28;20044;-84
2022/10/18 21:57:29;;;;;;;1.33;0.73;;;;;;;7.42;91.53;100221.78;10441281;28;20041;-92
2022/10/18 22:02:32;;;;;;;1.35;1.10;;;;;;;7.26;91.95;100225.56;10438566;28;20034;-84
2022/10/18 22:07:34;;;;;;;1.05;0.90;;;;;;;7.17;92.78;100217.09;10441376;28;20045;-82
2022/10/18 22:12:36;;;;;;;1.33;0.85;;;;;;;7.11;92.99;100220.06;10432749;28;20045;-82
2022/10/18 22:17:39;;;;;;;1.20;0.90;;;;;;;7.04;93.05;100224.97;10440857;28;20080;-82
2022/10/18 22:22:41;;;;;;;1.20;0.90;;;;;;;7.06;93.18;100220.88;10443014;28;20052;-82
2022/10/18 22:27:43;;;;;;;2.58;1.02;;;;;;;6.93;93.20;100222.19;10443292;28;20041;-82
2022/10/18 22:32:46;;;;;;;1.42;0.88;;;;;;;6.88;94.14;100210.44;10454376;28;20471;-82
2022/10/18 22:37:48;;;;;;;1.10;0.93;;;;;;;6.82;94.41;100212.34;10438144;28;20056;-82
2022/10/18 22:42:53;;;;;;;1.45;0.95;;;;;;;6.80;94.36;100213.72;10438154;28;20041;-82
2022/10/18 22:47:55;;;;;;;1.73;1.25;;;;;;;6.90;94.40;100214.53;10440740;28;20045;-82
2022/10/18 22:52:57;;;;;;;1.60;0.98;;;;;;;6.83;94.63;100210.44;10434861;28;20045;-82
2022/10/18 22:57:59;;;;;;;1.20;1.10;;;;;;;6.79;94.24;100199.25;10459533;28;20045;-83
2022/10/18 23:03:01;;;;;;;1.48;1.10;;;;;;;6.78;94.49;100194.88;10452149;28;20052;-82
2022/10/18 23:08:05;;;;;;;1.00;0.90;;;;;;;6.83;94.48;100192.16;10425515;28;20050;-82
2022/10/18 23:13:07;;;;;;;5.78;1.15;;;;;;;6.75;94.26;100195.41;10441444;28;20056;-82
2022/10/18 23:18:10;;;;;;;2.50;1.10;;;;;;;6.69;93.90;100190.19;10438204;28;20049;-82
2022/10/18 23:23:12;;;;;;;3.05;1.42;;;;;;;6.63;94.47;100190.19;10439367;28;20045;-82
2022/10/18 23:28:14;;;;;;;3.63;1.50;;;;;;;6.64;94.81;100191.00;10441380;28;20049;-82
2022/10/18 23:33:17;;;;;;;1.30;1.17;;;;;;;6.61;95.31;100194.28;10422707;28;20053;-82
2022/10/18 23:38:19;;;;;;;1.48;1.20;;;;;;;6.60;95.05;100187.19;10441587;28;20547;-81
2022/10/18 23:43:21;;;;;;;3.30;1.75;;;;;;;6.53;95.76;100192.84;10439960;28;20507;-82